Time;durP1;ratioP1;P1;durP2;ratioP2;P2;SDS_P1;SDS_P2;PMS_P1;PMS_P2;Temp;Humidity;BMP_temperature;BMP_pressure;BME280_temperature;BME280_humidity;BME280_pressure;Samples;Min_cycle;Max_cycle;Signal;HPM_P1;HPM_P2
2022/01/03 00:01:56;;;;;;;55.05;11.15;;;;;;;;;;5049921;28;20031;-64
2022/01/03 00:04:23;;;;;;;67.25;12.95;;;;;;;;;;5050830;28;20064;-64
2022/01/03 00:06:51;;;;;;;82.30;15.07;;;;;;;;;;5050926;28;20396;-60
2022/01/03 00:09:18;;;;;;;59.05;11.20;;;;;;;;;;5050790;28;20032;-64
2022/01/03 00:11:46;;;;;;;50.20;8.57;;;;;;;;;;5050211;28;20116;-59
2022/01/03 00:14:13;;;;;;;52.20;9.93;;;;;;;;;;5057280;28;20028;-61
2022/01/03 00:16:40;;;;;;;66.47;9.43;;;;;;;;;;5063318;28;20180;-64
2022/01/03 00:19:07;;;;;;;76.13;12.18;;;;;;;;;;5058491;28;20035;-64
2022/01/03 00:21:44;;;;;;;208.82;22.83;;;;;;;;;;5064991;28;20044;-65
2022/01/03 00:24:12;;;;;;;314.05;28.95;;;;;;;;;;5064803;28;20038;-65
2022/01/03 00:26:40;;;;;;;262.83;29.88;;;;;;;;;;5057471;28;20029;-63
2022/01/03 00:29:13;;;;;;;358.02;33.85;;;;;;;;;;5050093;28;20040;-63
2022/01/03 00:31:41;;;;;;;256.02;28.60;;;;;;;;;;5048084;28;20072;-64
2022/01/03 00:34:09;;;;;;;234.13;29.65;;;;;;;;;;5050894;28;20021;-65
2022/01/03 00:36:36;;;;;;;235.00;27.35;;;;;;;;;;5054240;28;20028;-61
2022/01/03 00:39:05;;;;;;;223.93;33.55;;;;;;;;;;5053970;28;20108;-64
2022/01/03 00:41:32;;;;;;;187.35;29.75;;;;;;;;;;5052898;28;20393;-62
2022/01/03 00:43:59;;;;;;;237.60;29.50;;;;;;;;;;5058423;28;20062;-63
2022/01/03 00:46:27;;;;;;;279.60;32.35;;;;;;;;;;5072593;28;20025;-58
2022/01/03 00:48:55;;;;;;;188.13;27.48;;;;;;;;;;5067823;28;20021;-60
2022/01/03 00:51:22;;;;;;;168.93;26.20;;;;;;;;;;5070559;28;20040;-60
2022/01/03 00:53:51;;;;;;;167.25;24.27;;;;;;;;;;5072249;28;20063;-67
2022/01/03 00:56:25;;;;;;;566.60;57.17;;;;;;;;;;5073508;28;20747;-66
2022/01/03 00:59:11;;;;;;;290.83;30.83;;;;;;;;;;5074066;28;20306;-65
2022/01/03 01:01:39;;;;;;;177.63;16.90;;;;;;;;;;5071063;28;20020;-69
2022/01/03 01:04:09;;;;;;;148.23;17.50;;;;;;;;;;5054599;28;20029;-67
2022/01/03 01:06:36;;;;;;;129.63;16.42;;;;;;;;;;5054000;28;20025;-66
2022/01/03 01:09:05;;;;;;;164.45;18.58;;;;;;;;;;5053989;28;20089;-67
2022/01/03 01:11:32;;;;;;;212.88;23.05;;;;;;;;;;5057945;28;20059;-66
2022/01/03 01:14:00;;;;;;;178.82;23.25;;;;;;;;;;5051837;28;20021;-65
2022/01/03 01:16:27;;;;;;;228.50;26.58;;;;;;;;;;5058859;28;20373;-67
2022/01/03 01:18:55;;;;;;;332.10;35.75;;;;;;;;;;5063645;28;20100;-64
2022/01/03 01:21:26;;;;;;;598.53;54.75;;;;;;;;;;5054733;28;20033;-69
2022/01/03 01:23:56;;;;;;;257.80;24.30;;;;;;;;;;5056291;28;20025;-61
2022/01/03 01:29:09;;;;;;;173.45;19.45;;;;;;;;;;5067427;28;20036;-65
2022/01/03 01:31:37;;;;;;;169.63;16.73;;;;;;;;;;5066199;28;20488;-64
2022/01/03 01:34:05;;;;;;;179.07;20.90;;;;;;;;;;5060859;28;20060;-65
2022/01/03 01:36:33;;;;;;;148.30;17.85;;;;;;;;;;5061217;28;20074;-63
2022/01/03 01:39:10;;;;;;;138.10;18.73;;;;;;;;;;5055759;28;20017;-64
2022/01/03 01:41:38;;;;;;;143.38;21.63;;;;;;;;;;5054715;28;20021;-66
2022/01/03 01:44:07;;;;;;;485.33;43.40;;;;;;;;;;5063456;28;20025;-63
2022/01/03 01:46:35;;;;;;;212.52;21.27;;;;;;;;;;5063057;28;20029;-64
2022/01/03 01:49:06;;;;;;;171.35;18.58;;;;;;;;;;5061970;28;20069;-64
2022/01/03 01:51:35;;;;;;;178.38;19.15;;;;;;;;;;5055224;28;20041;-63
2022/01/03 01:54:04;;;;;;;246.25;25.33;;;;;;;;;;5058610;28;20361;-64
2022/01/03 01:56:48;;;;;;;172.32;18.92;;;;;;;;;;5060812;28;20025;-65
2022/01/03 01:59:23;;;;;;;130.43;18.13;;;;;;;;;;5060544;28;20029;-64
2022/01/03 02:01:52;;;;;;;181.07;21.88;;;;;;;;;;5052418;28;20032;-62
2022/01/03 02:04:31;;;;;;;197.77;21.45;;;;;;;;;;5058611;28;20116;-65
2022/01/03 02:07:04;;;;;;;143.13;16.73;;;;;;;;;;5061102;28;20117;-66
2022/01/03 02:09:44;;;;;;;134.77;14.02;;;;;;;;;;5056065;28;20025;-60
2022/01/03 02:12:14;;;;;;;124.95;13.93;;;;;;;;;;5060246;28;20051;-63
2022/01/03 02:14:42;;;;;;;139.00;17.52;;;;;;;;;;5062878;28;20031;-73
2022/01/03 02:17:09;;;;;;;101.13;13.00;;;;;;;;;;5063162;28;20063;-61
2022/01/03 02:19:37;;;;;;;104.43;14.25;;;;;;;;;;5054225;28;20159;-60
2022/01/03 02:22:04;;;;;;;93.00;11.55;;;;;;;;;;5057229;28;20024;-65
2022/01/03 02:24:31;;;;;;;105.90;12.10;;;;;;;;;;5058504;28;20104;-65
2022/01/03 02:27:02;;;;;;;121.70;13.88;;;;;;;;;;5060031;28;20538;-62
2022/01/03 02:29:29;;;;;;;105.80;13.15;;;;;;;;;;5058360;28;20390;-72
2022/01/03 02:31:56;;;;;;;94.55;13.45;;;;;;;;;;5059630;28;20091;-63
2022/01/03 02:34:25;;;;;;;83.25;11.77;;;;;;;;;;5060445;28;20016;-64
2022/01/03 02:36:52;;;;;;;126.40;14.73;;;;;;;;;;5056050;28;20029;-64
2022/01/03 02:39:19;;;;;;;130.30;14.80;;;;;;;;;;5051902;28;20567;-64
2022/01/03 02:41:46;;;;;;;149.90;14.88;;;;;;;;;;5050868;28;20017;-63
2022/01/03 02:44:13;;;;;;;115.75;14.95;;;;;;;;;;5052190;28;20373;-65
2022/01/03 02:46:41;;;;;;;101.97;13.23;;;;;;;;;;5050863;28;20028;-67
2022/01/03 02:49:08;;;;;;;85.97;12.15;;;;;;;;;;5051970;28;20040;-62
2022/01/03 02:51:35;;;;;;;72.90;10.60;;;;;;;;;;5051691;28;20048;-66
2022/01/03 02:54:02;;;;;;;74.60;11.73;;;;;;;;;;5050942;28;20025;-62
2022/01/03 02:56:36;;;;;;;59.80;10.38;;;;;;;;;;5051066;28;20025;-69
2022/01/03 02:59:03;;;;;;;73.75;10.57;;;;;;;;;;5051743;28;20029;-66
2022/01/03 03:01:30;;;;;;;214.20;22.95;;;;;;;;;;5050806;28;20040;-70
2022/01/03 03:03:57;;;;;;;105.13;14.68;;;;;;;;;;5050490;28;20057;-66
2022/01/03 03:06:25;;;;;;;95.60;12.20;;;;;;;;;;5051448;28;20025;-69
2022/01/03 03:08:52;;;;;;;92.13;11.93;;;;;;;;;;5051840;28;20063;-67
2022/01/03 03:11:19;;;;;;;95.70;12.20;;;;;;;;;;5051412;28;20488;-67
2022/01/03 03:13:46;;;;;;;105.72;12.38;;;;;;;;;;5050946;28;20035;-65
2022/01/03 03:16:13;;;;;;;73.32;9.98;;;;;;;;;;5050953;28;20558;-69
2022/01/03 03:18:44;;;;;;;357.50;35.88;;;;;;;;;;5051606;28;20051;-63
2022/01/03 03:21:11;;;;;;;234.52;22.65;;;;;;;;;;5049993;28;20454;-64
2022/01/03 03:23:38;;;;;;;213.50;21.70;;;;;;;;;;5050469;28;20101;-66
2022/01/03 03:26:05;;;;;;;126.88;14.70;;;;;;;;;;5051378;28;20025;-68
2022/01/03 03:28:32;;;;;;;152.73;16.13;;;;;;;;;;5050731;28;20028;-62
2022/01/03 03:30:59;;;;;;;135.98;16.30;;;;;;;;;;5050802;28;20064;-66
2022/01/03 03:33:29;;;;;;;178.75;18.05;;;;;;;;;;5051429;28;20029;-69
2022/01/03 03:35:56;;;;;;;79.22;10.55;;;;;;;;;;5050380;28;20017;-64
2022/01/03 03:38:25;;;;;;;79.38;9.65;;;;;;;;;;5051289;28;20078;-71
2022/01/03 03:40:55;;;;;;;59.65;7.15;;;;;;;;;;5051327;28;20492;-71
2022/01/03 03:43:23;;;;;;;75.60;8.73;;;;;;;;;;5048877;28;20120;-69
2022/01/03 03:45:50;;;;;;;63.72;7.60;;;;;;;;;;5051213;28;20036;-68
2022/01/03 03:48:17;;;;;;;45.63;5.85;;;;;;;;;;5051208;28;20064;-62
2022/01/03 03:50:46;;;;;;;53.75;7.07;;;;;;;;;;5050619;28;20385;-71
2022/01/03 03:53:13;;;;;;;45.40;7.05;;;;;;;;;;5050851;28;20182;-66
2022/01/03 03:55:40;;;;;;;67.38;8.32;;;;;;;;;;5050251;28;20025;-64
2022/01/03 03:58:07;;;;;;;59.70;7.38;;;;;;;;;;5049618;28;20037;-68
2022/01/03 04:00:34;;;;;;;58.35;8.00;;;;;;;;;;5050977;28;20028;-70
2022/01/03 04:03:01;;;;;;;51.35;6.35;;;;;;;;;;5050541;28;20056;-70
2022/01/03 04:05:28;;;;;;;40.83;4.80;;;;;;;;;;5050451;28;20025;-71
2022/01/03 04:07:55;;;;;;;37.88;5.78;;;;;;;;;;5051795;28;20396;-68
2022/01/03 04:10:23;;;;;;;60.50;7.10;;;;;;;;;;5055183;28;20028;-71
2022/01/03 04:12:50;;;;;;;122.78;9.77;;;;;;;;;;5054633;28;20043;-71
2022/01/03 04:15:17;;;;;;;52.08;6.25;;;;;;;;;;5054024;28;20021;-72
2022/01/03 04:17:44;;;;;;;75.75;6.78;;;;;;;;;;5054713;28;20060;-67
2022/01/03 04:20:13;;;;;;;79.30;7.43;;;;;;;;;;5053602;28;20407;-69
2022/01/03 04:22:41;;;;;;;50.80;6.03;;;;;;;;;;5054588;28;20024;-70
2022/01/03 04:25:09;;;;;;;35.42;5.05;;;;;;;;;;5054650;28;20383;-65
2022/01/03 04:27:36;;;;;;;40.78;4.57;;;;;;;;;;5054982;28;20562;-64
2022/01/03 04:30:04;;;;;;;31.05;3.70;;;;;;;;;;5054510;28;20475;-66
2022/01/03 04:32:31;;;;;;;27.52;4.03;;;;;;;;;;5054540;28;20052;-69
2022/01/03 04:34:58;;;;;;;85.18;6.45;;;;;;;;;;5053641;28;20523;-62
2022/01/03 04:37:25;;;;;;;58.60;6.13;;;;;;;;;;5053252;28;20051;-64
2022/01/03 04:39:52;;;;;;;59.03;6.45;;;;;;;;;;5054593;28;20446;-67
2022/01/03 04:42:19;;;;;;;70.05;7.57;;;;;;;;;;5054580;28;20025;-66
2022/01/03 04:44:46;;;;;;;51.05;5.60;;;;;;;;;;5053525;28;20528;-63
2022/01/03 04:47:13;;;;;;;43.05;5.15;;;;;;;;;;5054281;28;20033;-73
2022/01/03 04:49:41;;;;;;;47.75;6.40;;;;;;;;;;5054148;28;20020;-74
2022/01/03 04:52:08;;;;;;;35.05;5.47;;;;;;;;;;5054255;28;20041;-74
2022/01/03 04:54:35;;;;;;;52.38;6.05;;;;;;;;;;5053176;28;20381;-74
2022/01/03 04:57:02;;;;;;;68.95;6.45;;;;;;;;;;5054253;28;20028;-73
2022/01/03 04:59:29;;;;;;;50.05;5.68;;;;;;;;;;5054259;28;20165;-73
2022/01/03 05:01:56;;;;;;;42.08;5.78;;;;;;;;;;5053516;28;20025;-73
2022/01/03 05:04:23;;;;;;;43.30;5.28;;;;;;;;;;5053669;28;20071;-73
2022/01/03 05:06:50;;;;;;;47.00;5.53;;;;;;;;;;5054000;28;20033;-73
2022/01/03 05:09:17;;;;;;;72.07;6.53;;;;;;;;;;5054042;28;20032;-69
2022/01/03 05:11:44;;;;;;;38.47;5.47;;;;;;;;;;5054061;28;20044;-71
2022/01/03 05:14:11;;;;;;;43.70;7.38;;;;;;;;;;5053576;28;20062;-73
2022/01/03 05:16:38;;;;;;;46.70;7.80;;;;;;;;;;5053063;28;20029;-73
2022/01/03 05:19:05;;;;;;;43.08;6.40;;;;;;;;;;5053486;28;20024;-70
2022/01/03 05:21:32;;;;;;;45.50;5.90;;;;;;;;;;5053100;28;20025;-72
2022/01/03 05:23:59;;;;;;;37.40;5.97;;;;;;;;;;5051388;28;20433;-71
2022/01/03 05:26:26;;;;;;;45.60;5.75;;;;;;;;;;5051814;28;20032;-73
2022/01/03 05:28:53;;;;;;;44.20;5.65;;;;;;;;;;5052527;28;20056;-74
2022/01/03 05:31:20;;;;;;;38.75;5.55;;;;;;;;;;5053324;28;20492;-74
2022/01/03 05:33:48;;;;;;;49.50;5.30;;;;;;;;;;5053307;28;20021;-73
2022/01/03 05:36:14;;;;;;;37.25;4.85;;;;;;;;;;5052977;28;20032;-70
2022/01/03 05:38:42;;;;;;;33.53;5.25;;;;;;;;;;5052284;28;20032;-72
2022/01/03 05:41:09;;;;;;;48.03;5.65;;;;;;;;;;5051668;28;20060;-73
2022/01/03 05:43:36;;;;;;;48.60;5.18;;;;;;;;;;5053442;28;20096;-71
2022/01/03 05:46:03;;;;;;;41.35;6.00;;;;;;;;;;5052660;28;20057;-72
2022/01/03 05:48:30;;;;;;;38.30;4.47;;;;;;;;;;5053303;28;20095;-70
2022/01/03 05:50:57;;;;;;;40.55;3.83;;;;;;;;;;5053330;28;20086;-73
2022/01/03 05:53:24;;;;;;;24.45;3.78;;;;;;;;;;5052819;28;20033;-73
2022/01/03 05:55:51;;;;;;;35.67;3.95;;;;;;;;;;5052938;28;20021;-73
2022/01/03 05:58:18;;;;;;;40.05;4.15;;;;;;;;;;5053327;28;20031;-66
2022/01/03 06:00:46;;;;;;;41.10;3.78;;;;;;;;;;5053050;28;20017;-69
2022/01/03 06:03:14;;;;;;;38.22;4.82;;;;;;;;;;5052940;28;20554;-72
2022/01/03 06:06:04;;;;;;;45.35;5.22;;;;;;;;;;5052671;28;20052;-70
2022/01/03 06:08:28;;;;;;;34.90;4.95;;;;;;;;;;5052887;28;20033;-69
2022/01/03 06:10:55;;;;;;;37.90;5.15;;;;;;;;;;5052860;28;20056;-70
2022/01/03 06:13:22;;;;;;;45.47;5.30;;;;;;;;;;5052686;28;20025;-70
2022/01/03 06:15:49;;;;;;;40.55;5.43;;;;;;;;;;5051721;28;20387;-73
2022/01/03 06:18:17;;;;;;;33.95;6.40;;;;;;;;;;5052767;28;20033;-71
2022/01/03 06:20:45;;;;;;;53.97;6.03;;;;;;;;;;5052616;28;20392;-71
2022/01/03 06:23:13;;;;;;;47.83;5.63;;;;;;;;;;5052698;28;20021;-68
2022/01/03 06:25:41;;;;;;;65.70;6.47;;;;;;;;;;5051141;28;20017;-73
2022/01/03 06:28:08;;;;;;;59.72;6.25;;;;;;;;;;5052427;28;20067;-72
2022/01/03 06:30:36;;;;;;;41.22;5.88;;;;;;;;;;5052324;28;20099;-69
2022/01/03 06:33:03;;;;;;;49.20;6.80;;;;;;;;;;5051778;28;20489;-71
2022/01/03 06:35:32;;;;;;;48.85;7.20;;;;;;;;;;5051437;28;20021;-70
2022/01/03 06:37:59;;;;;;;61.20;11.43;;;;;;;;;;5052016;28;20033;-72
2022/01/03 06:40:26;;;;;;;50.10;8.23;;;;;;;;;;5052234;28;20033;-71
2022/01/03 06:42:54;;;;;;;37.70;7.18;;;;;;;;;;5052155;28;20403;-70
2022/01/03 06:45:21;;;;;;;33.00;5.55;;;;;;;;;;5049853;28;20507;-72
2022/01/03 06:47:50;;;;;;;51.45;6.43;;;;;;;;;;5051965;28;20025;-67
2022/01/03 06:50:17;;;;;;;37.25;6.15;;;;;;;;;;5051985;28;20056;-70
2022/01/03 06:52:44;;;;;;;41.97;5.18;;;;;;;;;;5051525;28;20041;-72
2022/01/03 06:55:11;;;;;;;41.97;6.15;;;;;;;;;;5051434;28;20025;-70
2022/01/03 06:57:38;;;;;;;42.35;6.22;;;;;;;;;;5052011;28;20052;-71
2022/01/03 07:00:06;;;;;;;27.95;5.43;;;;;;;;;;5051936;28;20036;-66
2022/01/03 07:02:33;;;;;;;34.42;5.13;;;;;;;;;;5052024;28;20025;-73
2022/01/03 07:05:00;;;;;;;28.13;4.45;;;;;;;;;;5051654;28;20021;-70
2022/01/03 07:07:27;;;;;;;32.25;4.43;;;;;;;;;;5051139;28;20033;-62
2022/01/03 07:09:54;;;;;;;28.48;5.45;;;;;;;;;;5050721;28;20112;-61
2022/01/03 07:12:21;;;;;;;42.25;4.65;;;;;;;;;;5051644;28;20068;-63
2022/01/03 07:20:01;;;;;;;29.45;4.65;;;;;;;;;;5051861;28;20079;-64
2022/01/03 07:22:28;;;;;;;40.55;5.40;;;;;;;;;;5051465;28;20044;-61
2022/01/03 07:24:55;;;;;;;30.65;4.05;;;;;;;;;;5051524;28;20075;-64
2022/01/03 07:27:22;;;;;;;37.42;5.25;;;;;;;;;;5049856;28;20029;-64
2022/01/03 07:29:51;;;;;;;35.60;5.35;;;;;;;;;;5051153;28;20412;-69
2022/01/03 07:32:18;;;;;;;29.30;5.38;;;;;;;;;;5051216;28;20044;-68
2022/01/03 07:34:45;;;;;;;27.48;4.93;;;;;;;;;;5050446;28;20083;-64
2022/01/03 07:37:12;;;;;;;27.08;4.55;;;;;;;;;;5051353;28;20033;-66
2022/01/03 07:39:39;;;;;;;21.48;5.40;;;;;;;;;;5050871;28;20025;-64
2022/01/03 07:42:06;;;;;;;34.95;5.53;;;;;;;;;;5051109;28;20546;-63
2022/01/03 07:44:33;;;;;;;21.55;4.00;;;;;;;;;;5051340;28;20017;-62
2022/01/03 07:47:00;;;;;;;28.23;4.25;;;;;;;;;;5050218;28;20032;-63
2022/01/03 07:49:27;;;;;;;27.13;4.75;;;;;;;;;;5050036;28;20106;-64
2022/01/03 07:51:56;;;;;;;32.88;4.85;;;;;;;;;;5050711;28;20120;-66
2022/01/03 07:54:23;;;;;;;29.58;5.22;;;;;;;;;;5050953;28;20037;-67
2022/01/03 07:56:50;;;;;;;34.55;5.18;;;;;;;;;;5050687;28;20021;-65
2022/01/03 07:59:17;;;;;;;22.83;4.65;;;;;;;;;;5051427;28;20033;-64
2022/01/03 08:01:44;;;;;;;29.50;3.58;;;;;;;;;;5051136;28;20017;-65
2022/01/03 08:04:11;;;;;;;23.55;3.70;;;;;;;;;;5051152;28;20434;-65
2022/01/03 08:06:38;;;;;;;31.05;3.63;;;;;;;;;;5050183;28;20420;-64
2022/01/03 08:09:05;;;;;;;46.65;4.65;;;;;;;;;;5051186;28;20025;-66
2022/01/03 08:11:32;;;;;;;23.75;4.05;;;;;;;;;;5051007;28;20036;-65
2022/01/03 08:13:59;;;;;;;23.48;3.47;;;;;;;;;;5051397;28;20074;-64
2022/01/03 08:16:26;;;;;;;20.23;3.17;;;;;;;;;;5050112;28;20029;-64
2022/01/03 08:18:53;;;;;;;20.95;3.28;;;;;;;;;;5050957;28;20050;-64
2022/01/03 08:21:20;;;;;;;25.02;3.28;;;;;;;;;;5050848;28;20017;-63
2022/01/03 08:23:47;;;;;;;30.35;3.55;;;;;;;;;;5050428;28;20079;-62
2022/01/03 08:26:14;;;;;;;25.63;2.78;;;;;;;;;;5050517;28;20532;-62
2022/01/03 08:28:41;;;;;;;24.10;3.00;;;;;;;;;;5051110;28;20083;-66
2022/01/03 08:31:08;;;;;;;20.52;2.90;;;;;;;;;;5050622;28;20056;-69
2022/01/03 08:33:35;;;;;;;36.17;4.25;;;;;;;;;;5050936;28;20025;-70
2022/01/03 08:36:02;;;;;;;28.23;2.83;;;;;;;;;;5050218;28;20029;-64
2022/01/03 08:38:29;;;;;;;19.20;2.85;;;;;;;;;;5050943;28;20017;-66
2022/01/03 08:40:56;;;;;;;19.35;2.63;;;;;;;;;;5050887;28;20021;-69
2022/01/03 08:43:23;;;;;;;34.88;3.15;;;;;;;;;;5050984;28;20028;-67
2022/01/03 08:45:50;;;;;;;27.75;4.25;;;;;;;;;;5050633;28;20028;-64
2022/01/03 08:48:17;;;;;;;29.63;3.40;;;;;;;;;;5050269;28;20079;-66
2022/01/03 08:50:44;;;;;;;36.30;4.50;;;;;;;;;;5050726;28;20134;-64
2022/01/03 08:53:11;;;;;;;27.98;4.22;;;;;;;;;;5050726;28;20025;-66
2022/01/03 08:55:38;;;;;;;23.23;3.38;;;;;;;;;;5051551;28;20555;-66
2022/01/03 08:58:05;;;;;;;22.02;2.97;;;;;;;;;;5054590;28;20037;-63
2022/01/03 09:00:32;;;;;;;19.90;2.92;;;;;;;;;;5054187;28;20017;-64
2022/01/03 09:02:59;;;;;;;20.17;3.33;;;;;;;;;;5052770;28;20411;-66
2022/01/03 09:05:26;;;;;;;18.40;3.53;;;;;;;;;;5053585;28;20020;-73
2022/01/03 09:07:53;;;;;;;13.13;3.42;;;;;;;;;;5053482;28;20100;-73
2022/01/03 09:10:20;;;;;;;30.45;3.15;;;;;;;;;;5054045;28;20025;-69
2022/01/03 09:12:47;;;;;;;76.82;7.05;;;;;;;;;;5053082;28;20044;-73
2022/01/03 09:15:14;;;;;;;52.20;4.38;;;;;;;;;;5052220;28;20078;-72
2022/01/03 09:17:41;;;;;;;32.95;3.95;;;;;;;;;;5053103;28;20052;-73
2022/01/03 09:20:08;;;;;;;39.58;3.88;;;;;;;;;;5053373;28;20108;-73
2022/01/03 09:22:41;;;;;;;21.50;3.05;;;;;;;;;;5053300;28;20032;-68
2022/01/03 09:30:35;;;;;;;55.38;5.93;;;;;;;;;;5052978;28;20458;-74
2022/01/03 09:33:02;;;;;;;40.45;3.63;;;;;;;;;;5053255;28;20037;-73
2022/01/03 09:35:29;;;;;;;45.45;5.50;;;;;;;;;;5053309;28;20021;-72
2022/01/03 09:37:56;;;;;;;286.08;22.25;;;;;;;;;;5053097;28;20471;-73
2022/01/03 09:40:23;;;;;;;106.45;9.57;;;;;;;;;;5052725;28;20017;-69
2022/01/03 09:42:51;;;;;;;137.05;8.27;;;;;;;;;;5052562;28;20527;-63
2022/01/03 09:45:18;;;;;;;98.72;7.18;;;;;;;;;;5052405;28;20828;-62
2022/01/03 09:47:47;;;;;;;54.03;6.45;;;;;;;;;;5052435;28;20017;-61
2022/01/03 09:50:20;;;;;;;63.45;7.25;;;;;;;;;;5053195;28;20032;-66
2022/01/03 09:52:48;;;;;;;173.18;14.73;;;;;;;;;;5053085;28;20503;-65
2022/01/03 09:55:20;;;;;;;73.95;5.90;;;;;;;;;;5052584;28;20029;-65
2022/01/03 09:57:47;;;;;;;70.43;6.33;;;;;;;;;;5052645;28;20029;-62
2022/01/03 10:00:24;;;;;;;66.63;5.30;;;;;;;;;;5053161;28;20029;-64
2022/01/03 10:02:52;;;;;;;29.48;3.22;;;;;;;;;;5052418;28;20021;-66
2022/01/03 10:05:20;;;;;;;53.50;4.63;;;;;;;;;;5052882;28;20507;-69
2022/01/03 10:07:47;;;;;;;42.95;3.00;;;;;;;;;;5052132;28;20059;-68
2022/01/03 10:10:15;;;;;;;33.28;2.63;;;;;;;;;;5052816;28;20025;-69
2022/01/03 10:12:43;;;;;;;25.75;2.70;;;;;;;;;;5051956;28;20057;-68
2022/01/03 10:15:10;;;;;;;44.80;4.05;;;;;;;;;;5052456;28;20028;-65
2022/01/03 10:17:38;;;;;;;31.83;3.78;;;;;;;;;;5052245;28;20025;-66
2022/01/03 10:20:08;;;;;;;36.28;3.55;;;;;;;;;;5052336;28;20480;-62
2022/01/03 10:22:35;;;;;;;43.65;4.40;;;;;;;;;;5052516;28;20024;-62
2022/01/03 10:25:09;;;;;;;38.17;4.20;;;;;;;;;;5052351;28;20024;-67
2022/01/03 10:27:45;;;;;;;56.17;5.32;;;;;;;;;;5051352;28;20481;-64
2022/01/03 10:30:13;;;;;;;66.15;5.35;;;;;;;;;;5050289;28;20068;-71
2022/01/03 10:32:40;;;;;;;160.88;12.45;;;;;;;;;;5051247;28;20039;-68
2022/01/03 10:35:14;;;;;;;73.05;5.15;;;;;;;;;;5051731;28;20594;-71
2022/01/03 10:37:42;;;;;;;53.33;4.57;;;;;;;;;;5050602;28;20029;-67
2022/01/03 10:40:21;;;;;;;43.90;3.28;;;;;;;;;;5052147;28;20733;-69
2022/01/03 10:42:48;;;;;;;76.15;5.93;;;;;;;;;;5051731;28;20044;-69
2022/01/03 10:45:27;;;;;;;159.52;10.05;;;;;;;;;;5052400;28;20017;-68
2022/01/03 10:47:54;;;;;;;64.43;4.95;;;;;;;;;;5051572;28;20025;-71
2022/01/03 10:50:21;;;;;;;198.10;16.98;;;;;;;;;;5051513;28;20484;-66
2022/01/03 10:52:49;;;;;;;89.30;6.28;;;;;;;;;;5051938;28;20049;-69
2022/01/03 10:55:26;;;;;;;71.43;7.13;;;;;;;;;;5052009;28;20027;-63
2022/01/03 10:58:04;;;;;;;159.30;11.82;;;;;;;;;;5064661;28;20031;-61
2022/01/03 11:00:38;;;;;;;169.40;12.82;;;;;;;;;;5071822;28;20032;-60
2022/01/03 11:03:12;;;;;;;172.55;11.75;;;;;;;;;;5071817;28;20012;-62
2022/01/03 11:05:42;;;;;;;88.43;7.28;;;;;;;;;;5070860;28;20031;-62
2022/01/03 11:10:45;;;;;;;199.30;14.80;;;;;;;;;;5071838;28;20048;-57
2022/01/03 11:13:16;;;;;;;75.32;6.93;;;;;;;;;;5070571;28;20055;-57
2022/01/03 11:15:50;;;;;;;50.33;3.20;;;;;;;;;;5068094;28;20017;-57
2022/01/03 11:18:21;;;;;;;89.57;6.65;;;;;;;;;;5060247;28;20052;-57
2022/01/03 11:21:03;;;;;;;69.03;4.57;;;;;;;;;;5060225;28;20067;-59
2022/01/03 11:23:30;;;;;;;;;;;;;;;;;;5061162;28;20028;-59
2022/01/03 11:25:58;;;;;;;43.70;4.00;;;;;;;;;;5060462;28;19909;-57
2022/01/03 11:28:29;;;;;;;62.33;4.45;;;;;;;;;;5062145;28;20120;-58
2022/01/03 11:30:57;;;;;;;744.50;60.75;;;;;;;;;;5050955;28;20064;-58
2022/01/03 11:33:26;;;;;;;222.80;18.88;;;;;;;;;;5051392;28;20044;-57
2022/01/03 11:35:53;;;;;;;159.52;10.35;;;;;;;;;;5051364;28;20028;-58
2022/01/03 11:38:22;;;;;;;89.70;7.60;;;;;;;;;;5050732;28;20049;-58
2022/01/03 11:40:49;;;;;;;56.90;6.07;;;;;;;;;;5051145;28;20365;-56
2022/01/03 11:43:17;;;;;;;88.35;5.53;;;;;;;;;;5057837;28;20107;-58
2022/01/03 11:45:44;;;;;;;115.07;8.48;;;;;;;;;;5071468;28;20024;-57
2022/01/03 11:48:12;;;;;;;111.75;8.65;;;;;;;;;;5064545;28;20098;-62
2022/01/03 11:50:40;;;;;;;153.07;13.13;;;;;;;;;;5059710;28;20086;-69
2022/01/03 11:53:07;;;;;;;118.80;8.48;;;;;;;;;;5062374;28;20087;-66
2022/01/03 11:55:36;;;;;;;104.15;6.55;;;;;;;;;;5062490;28;20495;-66
2022/01/03 12:06:03;;;;;;;91.05;7.10;;;;;;;;;;5058476;28;20035;-66
2022/01/03 12:08:33;;;;;;;46.45;4.38;;;;;;;;;;5055276;28;20025;-65
2022/01/03 12:11:01;;;;;;;58.50;3.35;;;;;;;;;;5062945;28;20108;-64
2022/01/03 12:13:46;;;;;;;44.10;2.88;;;;;;;;;;5065869;28;20033;-64
2022/01/03 12:16:13;;;;;;;57.85;3.70;;;;;;;;;;5059763;28;20024;-65
2022/01/03 12:18:56;;;;;;;152.07;9.93;;;;;;;;;;5059456;28;20026;-66
2022/01/03 12:21:41;;;;;;;167.02;10.50;;;;;;;;;;5066181;28;20024;-64
2022/01/03 12:24:28;;;;;;;70.90;5.25;;;;;;;;;;5059616;28;20067;-66
2022/01/03 12:27:13;;;;;;;53.05;3.60;;;;;;;;;;5060099;28;20029;-67
2022/01/03 12:29:55;;;;;;;41.85;3.40;;;;;;;;;;5066883;28;20025;-69
2022/01/03 12:32:36;;;;;;;24.52;2.15;;;;;;;;;;5073970;28;20041;-65
2022/01/03 12:35:10;;;;;;;79.32;7.20;;;;;;;;;;5065864;28;20039;-65
2022/01/03 12:37:37;;;;;;;94.68;7.40;;;;;;;;;;5054185;28;20029;-67
2022/01/03 12:40:04;;;;;;;61.30;5.85;;;;;;;;;;5053999;28;20021;-65
2022/01/03 12:42:50;;;;;;;160.73;12.15;;;;;;;;;;5054479;28;20040;-64
2022/01/03 12:45:18;;;;;;;121.45;8.07;;;;;;;;;;5054245;28;20017;-64
2022/01/03 12:47:45;;;;;;;182.10;10.82;;;;;;;;;;5054307;28;20025;-68
2022/01/03 12:50:22;;;;;;;89.93;6.43;;;;;;;;;;5053520;28;20104;-66
2022/01/03 12:52:49;;;;;;;114.30;9.02;;;;;;;;;;5054007;28;20045;-63
2022/01/03 12:55:35;;;;;;;90.32;6.50;;;;;;;;;;5054289;28;20468;-67
2022/01/03 12:58:02;;;;;;;73.30;5.93;;;;;;;;;;5053375;28;20376;-62
2022/01/03 13:00:47;;;;;;;57.45;5.75;;;;;;;;;;5053841;28;20044;-68
2022/01/03 13:03:23;;;;;;;52.70;5.28;;;;;;;;;;5167066;22;20016;-65
2022/01/03 13:06:12;;;;;;;41.75;3.75;;;;;;;;;;5007696;28;20124;-62
2022/01/03 13:08:40;;;;;;;36.67;3.30;;;;;;;;;;5012515;28;20018;-65
2022/01/03 13:11:08;;;;;;;28.45;3.35;;;;;;;;;;5012610;28;20096;-67
2022/01/03 13:13:36;;;;;;;26.40;2.92;;;;;;;;;;5012044;28;20030;-64
2022/01/03 13:16:21;;;;;;;25.67;2.85;;;;;;;;;;5005290;28;20476;-63
2022/01/03 13:18:49;;;;;;;67.25;3.50;;;;;;;;;;5013496;28;20050;-64
2022/01/03 13:21:17;;;;;;;24.15;2.95;;;;;;;;;;5011108;28;20028;-62
2022/01/03 13:23:59;;;;;;;20.52;2.63;;;;;;;;;;5012501;28;20029;-66
2022/01/03 13:26:27;;;;;;;34.95;2.85;;;;;;;;;;5003979;28;20381;-67
2022/01/03 13:28:57;;;;;;;20.85;2.72;;;;;;;;;;5027596;28;20044;-62
2022/01/03 13:31:25;;;;;;;23.15;2.40;;;;;;;;;;5011442;28;20058;-62
2022/01/03 13:33:56;;;;;;;22.30;2.05;;;;;;;;;;5025803;28;20488;-62
2022/01/03 13:36:32;;;;;;;21.90;2.25;;;;;;;;;;5010281;28;20088;-65
2022/01/03 13:39:11;;;;;;;22.00;1.95;;;;;;;;;;5005489;28;20540;-63
2022/01/03 13:41:39;;;;;;;24.67;2.80;;;;;;;;;;5003874;28;20038;-66
2022/01/03 13:44:07;;;;;;;24.98;2.25;;;;;;;;;;4998879;28;20030;-65
2022/01/03 13:49:22;;;;;;;22.05;2.85;;;;;;;;;;4997217;28;20405;-70
2022/01/03 13:51:53;;;;;;;22.30;2.47;;;;;;;;;;4996005;28;20072;-68
2022/01/03 13:54:26;;;;;;;22.27;2.40;;;;;;;;;;5001633;28;20125;-65
2022/01/03 13:56:54;;;;;;;20.10;3.05;;;;;;;;;;5011869;28;20026;-62
2022/01/03 13:59:25;;;;;;;19.55;2.45;;;;;;;;;;5027603;28;20033;-63
2022/01/03 14:01:53;;;;;;;23.15;2.25;;;;;;;;;;5008862;28;20033;-65
2022/01/03 14:04:20;;;;;;;21.05;2.03;;;;;;;;;;5011235;28;20050;-61
2022/01/03 14:07:05;;;;;;;21.17;2.05;;;;;;;;;;5011524;28;20029;-66
2022/01/03 14:09:36;;;;;;;19.75;1.80;;;;;;;;;;5010493;28;20087;-62
2022/01/03 14:12:11;;;;;;;19.83;2.33;;;;;;;;;;5010336;28;20036;-63
2022/01/03 14:14:40;;;;;;;17.58;1.85;;;;;;;;;;5012179;28;20481;-62
2022/01/03 14:17:08;;;;;;;15.95;2.42;;;;;;;;;;5012275;28;20389;-62
2022/01/03 14:19:37;;;;;;;24.05;2.20;;;;;;;;;;5010922;28;20490;-62
2022/01/03 14:22:17;;;;;;;21.30;2.50;;;;;;;;;;5011510;28;20104;-69
2022/01/03 14:24:59;;;;;;;31.92;2.53;;;;;;;;;;5009457;28;20492;-62
2022/01/03 14:27:30;;;;;;;26.37;2.47;;;;;;;;;;5009136;28;20029;-62
2022/01/03 14:30:12;;;;;;;19.45;2.47;;;;;;;;;;5008424;28;20079;-62
2022/01/03 14:32:41;;;;;;;31.92;1.70;;;;;;;;;;5007838;28;20042;-62
2022/01/03 14:35:10;;;;;;;16.70;2.05;;;;;;;;;;5007366;28;20113;-62
2022/01/03 14:37:37;;;;;;;100.50;4.00;;;;;;;;;;5011282;28;20125;-62
2022/01/03 14:40:07;;;;;;;34.17;2.05;;;;;;;;;;5005246;28;20030;-63
2022/01/03 14:42:37;;;;;;;17.13;2.00;;;;;;;;;;5003271;28;20184;-63
2022/01/03 14:45:33;;;;;;;18.92;1.83;;;;;;;;;;5011997;28;20102;-63
2022/01/03 14:48:02;;;;;;;29.48;2.47;;;;;;;;;;4997345;28;20128;-62
2022/01/03 14:50:31;;;;;;;14.18;1.70;;;;;;;;;;5010532;28;20037;-63
2022/01/03 14:53:00;;;;;;;22.75;1.55;;;;;;;;;;5010331;28;20531;-62
2022/01/03 14:55:29;;;;;;;21.85;1.70;;;;;;;;;;5011317;28;20488;-62
2022/01/03 14:57:59;;;;;;;36.03;2.35;;;;;;;;;;5011244;28;20050;-62
2022/01/03 15:00:28;;;;;;;34.47;2.58;;;;;;;;;;5011299;28;20084;-62
2022/01/03 15:02:56;;;;;;;34.47;3.05;;;;;;;;;;5010555;28;20054;-62